createdAt,value
2023-04-20T00:01:27.655Z,8.00
2023-04-20T00:03:55.757Z,7.97
2023-04-20T00:06:25.570Z,8.01
2023-04-20T00:08:53.633Z,8.05
2023-04-20T00:11:21.587Z,8.03
2023-04-20T00:13:51.080Z,8.07
2023-04-20T00:16:19.675Z,8.07
2023-04-20T00:18:48.187Z,8.12
2023-04-20T00:21:16.901Z,8.01
2023-04-20T00:23:44.947Z,7.88
2023-04-20T00:26:12.951Z,7.88
2023-04-20T00:28:41.011Z,7.83
2023-04-20T00:31:11.027Z,7.73
2023-04-20T00:33:39.017Z,7.77
2023-04-20T00:36:07.317Z,7.79
2023-04-20T00:38:35.720Z,7.77
2023-04-20T00:41:03.897Z,7.75
2023-04-20T00:43:31.899Z,7.72
2023-04-20T00:45:59.853Z,7.70
2023-04-20T00:48:29.231Z,7.65
2023-04-20T00:50:57.766Z,7.64
2023-04-20T00:53:25.749Z,7.57
2023-04-20T00:55:53.804Z,7.53
2023-04-20T00:58:22.546Z,7.59
2023-04-20T01:00:50.605Z,7.58
2023-04-20T01:03:18.845Z,7.59
2023-04-20T01:05:48.366Z,7.68
2023-04-20T01:08:16.351Z,7.68
2023-04-20T01:10:44.384Z,7.72
2023-04-20T01:13:12.282Z,7.73
2023-04-20T01:15:40.267Z,7.77
2023-04-20T01:18:09.694Z,7.91
2023-04-20T01:20:37.640Z,7.94
2023-04-20T01:23:06.977Z,8.03
2023-04-20T01:25:34.939Z,8.16
2023-04-20T01:28:03.178Z,8.28
2023-04-20T01:30:31.272Z,8.12
2023-04-20T01:32:59.304Z,8.36
2023-04-20T01:35:27.404Z,8.48
2023-04-20T01:37:55.440Z,8.52
2023-04-20T01:40:24.821Z,8.48
2023-04-20T01:42:52.770Z,8.55
2023-04-20T01:45:20.877Z,8.64
2023-04-20T01:47:48.875Z,8.61
2023-04-20T01:50:16.922Z,8.71
2023-04-20T01:52:44.883Z,8.67
2023-04-20T01:55:12.898Z,8.67
2023-04-20T01:57:42.218Z,8.69
2023-04-20T02:00:11.234Z,8.64
2023-04-20T02:02:39.353Z,8.67
2023-04-20T02:05:08.218Z,8.75
2023-04-20T02:07:36.173Z,8.75
2023-04-20T02:10:04.667Z,8.75
2023-04-20T02:12:32.632Z,8.78
2023-04-20T02:15:01.914Z,8.74
2023-04-20T02:17:30.088Z,8.75
2023-04-20T02:19:58.074Z,8.80
2023-04-20T02:22:26.067Z,8.76
2023-04-20T02:24:54.029Z,8.79
2023-04-20T02:27:21.995Z,8.88
2023-04-20T02:29:50.313Z,8.85
2023-04-20T02:32:19.674Z,8.83
2023-04-20T02:34:47.636Z,8.85
2023-04-20T02:37:15.779Z,8.86
2023-04-20T02:39:43.799Z,8.85
2023-04-20T02:42:11.742Z,8.90
2023-04-20T02:44:39.602Z,8.91
2023-04-20T02:47:07.671Z,8.93
2023-04-20T02:49:37.111Z,8.92
2023-04-20T02:52:05.330Z,8.89
2023-04-20T02:54:33.344Z,8.87
2023-04-20T02:57:01.678Z,8.97
2023-04-20T02:59:29.652Z,8.97
2023-04-20T03:01:57.752Z,8.99
2023-04-20T03:04:26.401Z,8.99
2023-04-20T03:06:55.989Z,9.00
2023-04-20T03:09:23.898Z,9.04
2023-04-20T03:11:52.137Z,9.06
2023-04-20T03:14:20.438Z,9.04
2023-04-20T03:16:48.542Z,9.03
2023-04-20T03:19:17.424Z,9.11
2023-04-20T03:21:46.127Z,9.11
2023-04-20T03:24:16.246Z,9.12
2023-04-20T03:26:44.402Z,9.12
2023-04-20T03:29:12.365Z,8.95
2023-04-20T03:31:40.447Z,9.14
2023-04-20T03:34:08.465Z,8.98
2023-04-20T03:36:36.959Z,9.18
2023-04-20T03:39:05.757Z,9.19
2023-04-20T03:41:35.014Z,9.21
2023-04-20T03:44:02.985Z,9.21
2023-04-20T03:46:31.044Z,9.18
2023-04-20T03:48:58.979Z,9.18
2023-04-20T03:51:27.017Z,9.24
2023-04-20T03:53:54.998Z,9.22
2023-04-20T03:56:23.015Z,9.14
2023-04-20T03:58:52.342Z,9.23
2023-04-20T04:01:20.418Z,9.30
2023-04-20T04:03:48.768Z,9.30
2023-04-20T04:06:17.031Z,9.30
2023-04-20T04:08:45.049Z,9.33
2023-04-20T04:11:12.979Z,9.28
2023-04-20T04:13:40.900Z,9.30
2023-04-20T04:16:10.272Z,9.40
2023-04-20T04:18:38.208Z,9.41
2023-04-20T04:21:08.256Z,9.40
2023-04-20T04:23:37.375Z,9.49
2023-04-20T04:26:05.914Z,9.49
2023-04-20T04:28:33.866Z,9.59
2023-04-20T04:31:06.272Z,9.59
2023-04-20T04:33:35.733Z,9.57
2023-04-20T04:36:04.163Z,9.55
2023-04-20T04:38:33.440Z,9.46
2023-04-20T04:41:01.673Z,9.53
2023-04-20T04:43:31.319Z,9.57
2023-04-20T04:45:59.544Z,9.60
2023-04-20T04:48:28.015Z,9.65
2023-04-20T04:50:57.285Z,9.51
2023-04-20T04:53:25.235Z,9.65
2023-04-20T04:55:53.245Z,9.69
2023-04-20T04:58:21.459Z,9.45
2023-04-20T05:00:52.022Z,9.73
2023-04-20T05:03:20.057Z,9.51
2023-04-20T05:05:48.070Z,9.77
2023-04-20T05:08:17.543Z,9.84
2023-04-20T05:10:45.629Z,9.85
2023-04-20T05:13:13.646Z,9.89
2023-04-20T05:15:43.358Z,9.89
2023-04-20T05:18:11.829Z,9.82
2023-04-20T05:20:39.870Z,9.92
2023-04-20T05:23:08.872Z,9.96
2023-04-20T05:25:38.961Z,9.97
2023-04-20T05:28:07.215Z,9.96
2023-04-20T05:30:35.309Z,9.97
2023-04-20T05:33:03.271Z,9.95
2023-04-20T05:35:31.243Z,9.98
2023-04-20T05:38:00.502Z,10.02
2023-04-20T05:40:28.553Z,10.02
2023-04-20T05:42:57.835Z,10.14
2023-04-20T05:45:25.869Z,10.11
2023-04-20T05:47:56.944Z,10.19
2023-04-20T05:50:25.647Z,10.22
2023-04-20T05:52:54.269Z,10.25
2023-04-20T05:55:22.976Z,10.20
2023-04-20T05:57:52.777Z,10.34
2023-04-20T06:00:25.729Z,10.30
2023-04-20T06:02:54.587Z,10.41
2023-04-20T06:05:22.879Z,10.36
2023-04-20T06:07:51.001Z,10.38
2023-04-20T06:10:18.997Z,10.39
2023-04-20T06:12:47.586Z,10.41
2023-04-20T06:15:15.553Z,10.37
2023-04-20T06:17:44.888Z,10.26
2023-04-20T06:20:13.184Z,10.44
2023-04-20T06:22:45.411Z,10.59
2023-04-20T06:25:15.525Z,10.64
2023-04-20T06:27:43.851Z,10.51
2023-04-20T06:30:12.939Z,10.69
2023-04-20T06:32:40.911Z,10.67
2023-04-20T06:35:10.708Z,10.65
2023-04-20T06:37:38.940Z,10.63
2023-04-20T06:40:09.490Z,10.52
2023-04-20T06:42:37.964Z,10.53
2023-04-20T06:45:07.561Z,10.55
2023-04-20T06:47:35.937Z,10.60
2023-04-20T06:50:07.401Z,10.61
2023-04-20T06:52:37.882Z,10.54
2023-04-20T06:55:06.635Z,10.50
2023-04-20T06:57:34.655Z,10.57
2023-04-20T07:00:02.877Z,10.56
2023-04-20T07:02:30.859Z,10.55
2023-04-20T07:05:02.756Z,10.56
2023-04-20T07:07:30.940Z,10.51
2023-04-20T07:10:00.559Z,10.55
2023-04-20T07:12:29.022Z,10.56
2023-04-20T07:14:56.971Z,10.52
2023-04-20T07:17:29.449Z,10.56
2023-04-20T07:19:58.219Z,10.65
2023-04-20T07:22:26.690Z,10.79
2023-04-20T07:24:54.707Z,10.85
2023-04-20T07:27:24.078Z,10.74
2023-04-20T07:29:52.154Z,10.99
2023-04-20T07:32:20.383Z,11.08
2023-04-20T07:34:48.417Z,11.23
2023-04-20T07:37:16.412Z,11.42
2023-04-20T07:39:44.450Z,11.54
2023-04-20T07:42:12.455Z,11.34
2023-04-20T07:44:41.757Z,12.08
2023-04-20T07:47:09.693Z,12.46
2023-04-20T07:49:38.673Z,12.77
2023-04-20T07:52:16.270Z,13.26
2023-04-20T07:54:45.396Z,13.74
2023-04-20T07:57:13.623Z,14.96
2023-04-20T07:59:43.522Z,14.81
2023-04-20T08:02:11.553Z,14.19
2023-04-20T08:04:40.429Z,13.84
2023-04-20T08:07:08.737Z,13.48
2023-04-20T08:09:36.841Z,13.48
2023-04-20T08:12:05.224Z,13.40
2023-04-20T08:14:33.718Z,13.32
2023-04-20T08:17:03.269Z,13.50
2023-04-20T08:19:31.305Z,13.50
2023-04-20T08:22:00.652Z,13.08
2023-04-20T08:24:29.724Z,13.25
2023-04-20T08:26:59.325Z,13.24
2023-04-20T08:29:27.664Z,13.11
2023-04-20T08:31:55.815Z,13.07
2023-04-20T08:34:25.370Z,13.07
2023-04-20T08:36:53.444Z,12.88
2023-04-20T08:39:24.376Z,13.04
2023-04-20T08:41:54.017Z,14.30
2023-04-20T08:44:22.260Z,14.99
2023-04-20T08:46:50.724Z,15.79
2023-04-20T08:49:20.961Z,16.34
2023-04-20T08:51:51.559Z,14.51
2023-04-20T08:54:20.003Z,14.14
2023-04-20T08:56:49.306Z,13.51
2023-04-20T08:59:17.726Z,13.19
2023-04-20T09:01:46.480Z,13.32
2023-04-20T09:04:19.563Z,13.33
2023-04-20T09:06:50.267Z,13.22
2023-04-20T09:09:20.396Z,13.18
2023-04-20T09:11:48.875Z,13.03
2023-04-20T09:14:18.524Z,12.98
2023-04-20T09:16:54.363Z,13.42
2023-04-20T09:19:25.699Z,13.76
2023-04-20T09:21:54.859Z,13.50
2023-04-20T09:24:31.449Z,13.79
2023-04-20T09:26:59.434Z,14.15
2023-04-20T09:29:27.885Z,14.32
2023-04-20T09:31:56.288Z,14.30
2023-04-20T09:34:25.774Z,14.68
2023-04-20T09:36:55.977Z,15.00
2023-04-20T09:39:26.970Z,15.28
2023-04-20T09:42:05.372Z,15.92
2023-04-20T09:44:34.121Z,16.07
2023-04-20T09:47:02.142Z,16.15
2023-04-20T09:49:30.826Z,17.28
2023-04-20T09:52:02.801Z,16.80
2023-04-20T09:54:32.648Z,16.19
2023-04-20T09:57:01.784Z,15.53
2023-04-20T09:59:30.552Z,15.84
2023-04-20T10:01:58.531Z,15.80
2023-04-20T10:04:26.984Z,15.38
2023-04-20T10:06:58.022Z,15.65
2023-04-20T10:09:27.437Z,16.62
2023-04-20T10:12:07.108Z,16.87
2023-04-20T10:14:35.718Z,16.73
2023-04-20T10:17:05.751Z,17.11
2023-04-20T10:19:41.209Z,17.72
2023-04-20T10:22:10.453Z,17.19
2023-04-20T10:24:39.114Z,16.65
2023-04-20T10:27:19.446Z,16.29
2023-04-20T10:29:47.867Z,16.60
2023-04-20T10:32:26.962Z,17.18
2023-04-20T10:35:06.582Z,16.83
2023-04-20T10:37:37.714Z,16.24
2023-04-20T10:40:08.118Z,16.85
2023-04-20T10:42:44.912Z,16.99
2023-04-20T10:45:13.648Z,18.10
2023-04-20T10:47:41.978Z,18.77
2023-04-20T10:50:12.201Z,19.02
2023-04-20T10:52:42.676Z,19.62
2023-04-20T10:55:21.101Z,18.69
2023-04-20T10:57:50.578Z,19.04
2023-04-20T11:00:20.550Z,19.02
2023-04-20T11:02:52.829Z,19.59
2023-04-20T11:05:21.773Z,19.96
2023-04-20T11:07:53.334Z,20.13
2023-04-20T11:10:22.145Z,19.14
2023-04-20T11:12:52.142Z,17.53
2023-04-20T11:15:20.099Z,17.32
2023-04-20T11:17:48.153Z,17.37
2023-04-20T11:20:17.718Z,17.26
2023-04-20T11:22:57.376Z,17.05
2023-04-20T11:25:25.385Z,17.31
2023-04-20T11:27:54.837Z,17.10
2023-04-20T11:30:22.859Z,16.77
2023-04-20T11:32:55.910Z,16.32
2023-04-20T11:35:24.136Z,16.89
2023-04-20T11:37:53.812Z,17.00
2023-04-20T11:40:22.047Z,17.03
2023-04-20T11:42:50.954Z,17.02
2023-04-20T11:45:20.272Z,16.81
2023-04-20T11:47:49.474Z,17.00
2023-04-20T11:50:17.554Z,17.04
2023-04-20T11:52:45.531Z,16.57
2023-04-20T11:55:13.435Z,16.35
2023-04-20T11:57:41.405Z,16.41
2023-04-20T12:00:10.760Z,16.53
2023-04-20T12:02:40.232Z,16.66
2023-04-20T12:05:09.070Z,16.75
2023-04-20T12:07:37.091Z,16.43
2023-04-20T12:10:05.393Z,16.27
2023-04-20T12:12:34.081Z,16.08
2023-04-20T12:15:01.981Z,15.47
2023-04-20T12:17:30.026Z,15.13
2023-04-20T12:19:59.399Z,14.93
2023-04-20T12:22:27.567Z,14.88
2023-04-20T12:24:55.476Z,14.45
2023-04-20T12:27:23.561Z,14.55
2023-04-20T12:29:51.510Z,14.49
2023-04-20T12:32:19.658Z,14.40
2023-04-20T12:34:47.621Z,14.51
2023-04-20T12:37:16.972Z,14.61
2023-04-20T12:39:44.944Z,14.81
2023-04-20T12:42:12.962Z,14.91
2023-04-20T12:44:41.040Z,15.11
2023-04-20T12:47:10.369Z,15.44
2023-04-20T12:49:38.443Z,15.85
2023-04-20T12:52:08.105Z,15.96
2023-04-20T12:54:37.733Z,15.97
2023-04-20T12:57:05.775Z,15.69
2023-04-20T12:59:33.781Z,15.95
2023-04-20T13:02:02.579Z,15.86
2023-04-20T13:04:30.838Z,15.72
2023-04-20T13:06:58.947Z,15.39
2023-04-20T13:09:28.312Z,15.19
2023-04-20T13:11:57.976Z,15.05
2023-04-20T13:14:26.631Z,15.05
2023-04-20T13:16:55.539Z,14.96
2023-04-20T13:19:24.148Z,14.62
2023-04-20T13:21:52.170Z,14.53
2023-04-20T13:24:20.565Z,14.66
2023-04-20T13:26:48.887Z,14.52
2023-04-20T13:29:18.415Z,14.31
2023-04-20T13:31:47.605Z,14.11
2023-04-20T13:34:15.833Z,14.03
2023-04-20T13:36:44.321Z,14.03
2023-04-20T13:39:13.467Z,14.09
2023-04-20T13:41:41.435Z,14.18
2023-04-20T13:44:15.867Z,14.08
2023-04-20T13:46:46.439Z,14.19
2023-04-20T13:49:15.582Z,14.13
2023-04-20T13:51:43.859Z,14.01
2023-04-20T13:54:12.033Z,14.08
2023-04-20T13:56:40.038Z,14.06
2023-04-20T13:59:08.031Z,14.03
2023-04-20T14:01:36.894Z,14.05
2023-04-20T14:04:06.762Z,13.88
2023-04-20T14:06:35.007Z,13.91
2023-04-20T14:09:03.045Z,13.99
2023-04-20T14:11:31.033Z,14.06
2023-04-20T14:13:59.066Z,14.14
2023-04-20T14:16:27.346Z,14.18
2023-04-20T14:18:55.383Z,14.30
2023-04-20T14:21:24.798Z,14.33
2023-04-20T14:23:54.674Z,14.29
2023-04-20T14:26:22.748Z,14.31
2023-04-20T14:28:52.588Z,14.32
2023-04-20T14:31:20.894Z,14.35
2023-04-20T14:33:48.963Z,14.41
2023-04-20T14:36:16.878Z,14.45
2023-04-20T14:38:46.282Z,14.48
2023-04-20T14:41:14.263Z,14.47
2023-04-20T14:43:42.246Z,14.46
2023-04-20T14:46:12.683Z,14.40
2023-04-20T14:48:42.035Z,14.51
2023-04-20T14:51:12.233Z,14.34
2023-04-20T14:53:40.302Z,14.41
2023-04-20T14:56:09.801Z,14.27
2023-04-20T14:58:38.394Z,14.17
2023-04-20T15:01:06.876Z,14.12
2023-04-20T15:03:34.995Z,14.04
2023-04-20T15:06:04.178Z,14.08
2023-04-20T15:08:32.240Z,14.08
2023-04-20T15:11:02.149Z,13.33
2023-04-20T15:13:31.479Z,14.24
2023-04-20T15:15:59.705Z,14.03
2023-04-20T15:18:27.966Z,14.03
2023-04-20T15:20:55.936Z,13.98
2023-04-20T15:23:24.795Z,13.98
2023-04-20T15:25:53.685Z,13.95
2023-04-20T15:28:21.749Z,13.92
2023-04-20T15:30:51.347Z,13.93
2023-04-20T15:33:19.668Z,13.96
2023-04-20T15:35:50.860Z,13.84
2023-04-20T15:38:18.933Z,13.87
2023-04-20T15:40:47.821Z,13.56
2023-04-20T15:43:15.835Z,13.80
2023-04-20T15:45:44.893Z,13.71
2023-04-20T15:48:14.386Z,13.78
2023-04-20T15:50:42.517Z,13.77
2023-04-20T15:53:10.477Z,13.78
2023-04-20T15:55:40.052Z,13.78
2023-04-20T15:58:08.007Z,13.77
2023-04-20T16:00:37.000Z,13.85
2023-04-20T16:03:05.874Z,13.80
2023-04-20T16:05:38.475Z,13.93
2023-04-20T16:08:06.734Z,13.92
2023-04-20T16:10:37.840Z,13.94
2023-04-20T16:13:06.289Z,13.95
2023-04-20T16:15:34.207Z,13.95
2023-04-20T16:18:05.074Z,13.89
2023-04-20T16:20:34.662Z,13.90
2023-04-20T16:23:04.069Z,13.89
2023-04-20T16:25:34.111Z,13.64
2023-04-20T16:28:02.292Z,13.82
2023-04-20T16:30:30.411Z,13.83
2023-04-20T16:32:59.919Z,13.92
2023-04-20T16:35:28.170Z,13.92
2023-04-20T16:37:56.676Z,13.92
2023-04-20T16:40:26.717Z,13.82
2023-04-20T16:42:55.430Z,13.85
2023-04-20T16:45:23.393Z,13.85
2023-04-20T16:47:52.491Z,13.90
2023-04-20T16:50:20.734Z,13.87
2023-04-20T16:52:49.076Z,13.86
2023-04-20T16:55:17.285Z,13.50
2023-04-20T16:57:46.751Z,13.80
2023-04-20T17:00:15.978Z,13.78
2023-04-20T17:02:44.067Z,13.74
2023-04-20T17:05:12.492Z,13.60
2023-04-20T17:07:40.880Z,13.63
2023-04-20T17:10:09.460Z,13.60
2023-04-20T17:12:38.825Z,13.58
2023-04-20T17:15:11.386Z,13.55
2023-04-20T17:17:39.477Z,13.55
2023-04-20T17:20:08.932Z,13.50
2023-04-20T17:22:37.451Z,13.55
2023-04-20T17:25:07.763Z,13.52
2023-04-20T17:27:36.659Z,13.55
2023-04-20T17:30:05.655Z,13.32
2023-04-20T17:32:35.488Z,13.54
2023-04-20T17:35:03.761Z,13.29
2023-04-20T17:37:31.798Z,13.52
2023-04-20T17:39:59.774Z,13.51
2023-04-20T17:42:28.192Z,13.42
2023-04-20T17:44:56.329Z,13.48
2023-04-20T17:47:24.389Z,13.44
2023-04-20T17:49:54.109Z,13.13
2023-04-20T17:52:25.275Z,13.43
2023-04-20T17:54:54.660Z,13.43
2023-04-20T17:57:22.713Z,13.50
2023-04-20T17:59:50.808Z,13.50
2023-04-20T18:02:19.062Z,13.41
2023-04-20T18:04:47.338Z,13.49
2023-04-20T18:07:17.935Z,13.53
2023-04-20T18:09:47.157Z,13.53
2023-04-20T18:12:15.410Z,13.54
2023-04-20T18:14:44.818Z,13.51
2023-04-20T18:17:13.369Z,13.50
2023-04-20T18:19:43.182Z,13.53
2023-04-20T18:22:13.558Z,13.45
2023-04-20T18:24:43.209Z,13.41
2023-04-20T18:27:11.557Z,13.48
2023-04-20T18:29:39.621Z,13.48
2023-04-20T18:32:13.202Z,13.33
2023-04-20T18:34:43.718Z,13.15
2023-04-20T18:37:14.179Z,13.07
2023-04-20T18:39:50.808Z,12.73
2023-04-20T18:42:21.063Z,13.02
2023-04-20T18:44:51.537Z,12.97
2023-04-20T18:47:21.372Z,12.91
2023-04-20T18:49:56.004Z,12.69
2023-04-20T18:52:26.857Z,12.77
2023-04-20T18:54:57.886Z,12.71
2023-04-20T18:57:30.211Z,12.68
2023-04-20T18:59:58.681Z,12.60
2023-04-20T19:02:27.144Z,12.67
2023-04-20T19:04:55.775Z,12.61
2023-04-20T19:07:33.664Z,12.62
2023-04-20T19:10:03.114Z,12.59
2023-04-20T19:12:31.619Z,12.57
2023-04-20T19:15:04.671Z,12.55
2023-04-20T19:17:33.186Z,12.61
2023-04-20T19:20:01.496Z,12.29
2023-04-20T19:22:30.304Z,12.64
2023-04-20T19:24:58.832Z,12.61
2023-04-20T19:27:28.591Z,12.43
2023-04-20T19:29:58.523Z,12.57
2023-04-20T19:32:27.994Z,12.61
2023-04-20T19:34:59.233Z,12.30
2023-04-20T19:37:27.811Z,12.05
2023-04-20T19:39:56.218Z,12.68
2023-04-20T19:42:42.578Z,12.55
2023-04-20T19:45:12.876Z,12.74
2023-04-20T19:47:41.087Z,12.75
2023-04-20T19:50:12.328Z,12.58
2023-04-20T19:52:42.875Z,12.63
2023-04-20T19:55:14.557Z,12.58
2023-04-20T19:57:42.848Z,12.54
2023-04-20T20:00:17.281Z,12.50
2023-04-20T20:02:45.818Z,12.42
2023-04-20T20:05:19.723Z,12.38
2023-04-20T20:07:52.315Z,12.32
2023-04-20T20:10:55.760Z,12.28
2023-04-20T20:13:28.401Z,12.26
2023-04-20T20:16:05.487Z,12.21
2023-04-20T20:18:37.593Z,12.12
2023-04-20T20:21:13.651Z,12.13
2023-04-20T20:23:49.009Z,11.86
2023-04-20T20:26:18.555Z,11.99
2023-04-20T20:28:49.940Z,11.99
2023-04-20T20:31:20.164Z,11.96
2023-04-20T20:33:49.764Z,11.82
2023-04-20T20:36:18.853Z,11.88
2023-04-20T20:38:47.424Z,11.82
2023-04-20T20:41:19.455Z,11.71
2023-04-20T20:43:50.478Z,11.82
2023-04-20T20:46:20.401Z,11.81
2023-04-20T20:48:50.110Z,11.68
2023-04-20T20:51:18.904Z,11.51
2023-04-20T20:53:49.586Z,11.66
2023-04-20T20:56:18.126Z,11.66
2023-04-20T20:58:47.221Z,11.57
2023-04-20T21:01:16.179Z,11.55
2023-04-20T21:03:45.722Z,11.51
2023-04-20T21:06:14.784Z,11.50
2023-04-20T21:08:43.667Z,11.42
2023-04-20T21:11:17.031Z,11.28
2023-04-20T21:13:46.528Z,11.40
2023-04-20T21:16:18.705Z,11.46
2023-04-20T21:18:48.429Z,11.43
2023-04-20T21:21:23.455Z,11.39
2023-04-20T21:23:52.940Z,11.38
2023-04-20T21:26:21.690Z,11.38
2023-04-20T21:28:50.628Z,11.39
2023-04-20T21:31:19.538Z,11.41
2023-04-20T21:33:49.322Z,11.33
2023-04-20T21:36:18.837Z,11.39
2023-04-20T21:38:49.060Z,11.28
2023-04-20T21:41:19.360Z,11.41
2023-04-20T21:43:49.790Z,11.49
2023-04-20T21:46:19.448Z,11.42
2023-04-20T21:48:51.601Z,11.55
2023-04-20T21:51:23.515Z,11.55
2023-04-20T21:53:52.050Z,11.48
2023-04-20T21:56:20.285Z,11.49
2023-04-20T21:58:48.306Z,11.49
2023-04-20T22:01:16.436Z,11.56
2023-04-20T22:03:44.641Z,11.57
2023-04-20T22:06:14.166Z,11.57
2023-04-20T22:08:42.185Z,11.56
2023-04-20T22:11:10.388Z,11.52
2023-04-20T22:13:38.619Z,11.50
2023-04-20T22:16:07.269Z,11.31
2023-04-20T22:18:35.363Z,11.33
2023-04-20T22:21:03.681Z,11.13
2023-04-20T22:23:33.033Z,10.96
2023-04-20T22:26:01.143Z,10.78
2023-04-20T22:28:29.347Z,10.73
2023-04-20T22:30:57.340Z,10.70
2023-04-20T22:33:25.895Z,10.61
2023-04-20T22:35:53.990Z,10.53
2023-04-20T22:38:22.012Z,10.45
2023-04-20T22:40:51.452Z,10.31
2023-04-20T22:43:20.484Z,10.42
2023-04-20T22:45:48.957Z,10.28
2023-04-20T22:48:17.635Z,10.22
2023-04-20T22:50:45.565Z,10.12
2023-04-20T22:53:13.890Z,10.22
2023-04-20T22:55:42.051Z,10.12
2023-04-20T22:58:11.689Z,10.01
2023-04-20T23:00:39.767Z,10.21
2023-04-20T23:03:08.201Z,10.15
2023-04-20T23:05:36.426Z,10.16
2023-04-20T23:08:04.724Z,10.10
2023-04-20T23:10:32.755Z,10.06
2023-04-20T23:13:00.942Z,9.94
2023-04-20T23:15:30.595Z,9.80
2023-04-20T23:17:58.608Z,9.69
2023-04-20T23:20:26.974Z,9.60
2023-04-20T23:22:54.956Z,9.24
2023-04-20T23:25:22.864Z,9.20
2023-04-20T23:27:50.903Z,9.36
2023-04-20T23:30:19.039Z,9.38
2023-04-20T23:32:48.431Z,9.24
2023-04-20T23:35:16.609Z,9.48
2023-04-20T23:37:44.659Z,9.40
2023-04-20T23:40:12.958Z,9.36
2023-04-20T23:42:40.851Z,9.24
2023-04-20T23:45:10.104Z,9.23
2023-04-20T23:47:38.038Z,9.11
2023-04-20T23:50:09.087Z,9.09
2023-04-20T23:52:37.141Z,9.03
2023-04-20T23:55:06.268Z,9.04
2023-04-20T23:57:34.252Z,9.08
